sensor_id;sensor_type;location;lat;lon;timestamp;temperature;humidity
14370;DHT22;7268;50.792;0.252;2024-03-08T00:00:18;3.60;99.90
14370;DHT22;7268;50.792;0.252;2024-03-08T00:02:47;3.60;99.90
14370;DHT22;7268;50.792;0.252;2024-03-08T00:05:14;3.50;99.90
14370;DHT22;7268;50.792;0.252;2024-03-08T00:07:42;3.60;99.90
14370;DHT22;7268;50.792;0.252;2024-03-08T00:10:11;3.60;99.90
14370;DHT22;7268;50.792;0.252;2024-03-08T00:12:41;3.60;99.90
14370;DHT22;7268;50.792;0.252;2024-03-08T00:15:16;3.70;99.90
14370;DHT22;7268;50.792;0.252;2024-03-08T00:17:46;3.60;99.90
14370;DHT22;7268;50.792;0.252;2024-03-08T00:20:14;3.60;99.90
14370;DHT22;7268;50.792;0.252;2024-03-08T00:22:41;3.50;99.90
14370;DHT22;7268;50.792;0.252;2024-03-08T00:25:09;3.50;99.90
14370;DHT22;7268;50.792;0.252;2024-03-08T00:27:37;3.50;99.90
14370;DHT22;7268;50.792;0.252;2024-03-08T00:30:05;3.40;99.90
14370;DHT22;7268;50.792;0.252;2024-03-08T00:32:33;3.40;99.90
14370;DHT22;7268;50.792;0.252;2024-03-08T00:35:00;3.50;99.90
14370;DHT22;7268;50.792;0.252;2024-03-08T00:37:27;3.50;99.90
14370;DHT22;7268;50.792;0.252;2024-03-08T00:39:54;3.60;99.90
14370;DHT22;7268;50.792;0.252;2024-03-08T00:42:23;3.50;99.90
14370;DHT22;7268;50.792;0.252;2024-03-08T00:44:51;3.50;99.90
14370;DHT22;7268;50.792;0.252;2024-03-08T00:47:19;3.50;99.90
14370;DHT22;7268;50.792;0.252;2024-03-08T00:49:46;3.50;99.90
14370;DHT22;7268;50.792;0.252;2024-03-08T00:52:13;3.50;99.90
14370;DHT22;7268;50.792;0.252;2024-03-08T00:54:41;3.40;99.90
14370;DHT22;7268;50.792;0.252;2024-03-08T00:57:09;3.30;99.90
14370;DHT22;7268;50.792;0.252;2024-03-08T00:59:38;3.30;99.90
14370;DHT22;7268;50.792;0.252;2024-03-08T01:02:05;3.30;99.90
14370;DHT22;7268;50.792;0.252;2024-03-08T01:04:32;3.40;99.90
14370;DHT22;7268;50.792;0.252;2024-03-08T01:07:00;3.40;99.90
14370;DHT22;7268;50.792;0.252;2024-03-08T01:09:27;3.40;99.90
14370;DHT22;7268;50.792;0.252;2024-03-08T01:11:55;3.40;99.90
14370;DHT22;7268;50.792;0.252;2024-03-08T01:14:25;3.40;99.90
14370;DHT22;7268;50.792;0.252;2024-03-08T01:16:52;3.40;99.90
14370;DHT22;7268;50.792;0.252;2024-03-08T01:19:19;3.40;99.90
14370;DHT22;7268;50.792;0.252;2024-03-08T01:21:46;3.40;99.90
14370;DHT22;7268;50.792;0.252;2024-03-08T01:24:13;3.50;99.90
14370;DHT22;7268;50.792;0.252;2024-03-08T01:26:40;3.50;99.90
14370;DHT22;7268;50.792;0.252;2024-03-08T01:29:07;3.50;99.90
14370;DHT22;7268;50.792;0.252;2024-03-08T01:31:34;3.60;99.90
14370;DHT22;7268;50.792;0.252;2024-03-08T01:34:03;3.70;99.90
14370;DHT22;7268;50.792;0.252;2024-03-08T01:36:30;3.60;99.90
14370;DHT22;7268;50.792;0.252;2024-03-08T01:38:57;3.70;99.90
14370;DHT22;7268;50.792;0.252;2024-03-08T01:41:24;3.60;99.90
14370;DHT22;7268;50.792;0.252;2024-03-08T01:43:51;3.70;99.90
14370;DHT22;7268;50.792;0.252;2024-03-08T01:46:20;3.70;99.90
14370;DHT22;7268;50.792;0.252;2024-03-08T01:48:49;3.80;99.90
14370;DHT22;7268;50.792;0.252;2024-03-08T01:51:18;3.90;99.90
14370;DHT22;7268;50.792;0.252;2024-03-08T01:53:46;4.00;99.90
14370;DHT22;7268;50.792;0.252;2024-03-08T01:56:14;4.20;99.90
14370;DHT22;7268;50.792;0.252;2024-03-08T01:58:41;4.30;99.90
14370;DHT22;7268;50.792;0.252;2024-03-08T02:01:12;4.60;99.90
14370;DHT22;7268;50.792;0.252;2024-03-08T02:03:42;4.80;99.90
14370;DHT22;7268;50.792;0.252;2024-03-08T02:06:13;4.90;99.90
14370;DHT22;7268;50.792;0.252;2024-03-08T02:08:44;5.00;99.90
14370;DHT22;7268;50.792;0.252;2024-03-08T02:11:12;5.20;99.90
14370;DHT22;7268;50.792;0.252;2024-03-08T02:13:39;5.50;99.90
14370;DHT22;7268;50.792;0.252;2024-03-08T02:16:06;5.40;99.90
14370;DHT22;7268;50.792;0.252;2024-03-08T02:18:35;5.50;99.90
14370;DHT22;7268;50.792;0.252;2024-03-08T02:21:04;5.50;99.90
14370;DHT22;7268;50.792;0.252;2024-03-08T02:23:32;5.60;99.90
14370;DHT22;7268;50.792;0.252;2024-03-08T02:26:00;5.60;99.90
14370;DHT22;7268;50.792;0.252;2024-03-08T02:28:27;5.70;99.90
14370;DHT22;7268;50.792;0.252;2024-03-08T02:30:55;5.70;99.90
14370;DHT22;7268;50.792;0.252;2024-03-08T02:33:24;5.70;99.90
14370;DHT22;7268;50.792;0.252;2024-03-08T02:35:51;5.70;99.90
14370;DHT22;7268;50.792;0.252;2024-03-08T02:38:20;5.70;99.90
14370;DHT22;7268;50.792;0.252;2024-03-08T02:40:51;5.70;99.90
14370;DHT22;7268;50.792;0.252;2024-03-08T02:43:20;5.80;99.90
14370;DHT22;7268;50.792;0.252;2024-03-08T02:45:49;5.80;99.90
14370;DHT22;7268;50.792;0.252;2024-03-08T02:48:16;5.80;99.90
14370;DHT22;7268;50.792;0.252;2024-03-08T02:50:43;5.80;99.90
14370;DHT22;7268;50.792;0.252;2024-03-08T02:53:12;5.80;99.90
14370;DHT22;7268;50.792;0.252;2024-03-08T02:55:39;5.80;99.90
14370;DHT22;7268;50.792;0.252;2024-03-08T02:58:08;5.80;99.90
14370;DHT22;7268;50.792;0.252;2024-03-08T03:00:37;5.90;99.90
14370;DHT22;7268;50.792;0.252;2024-03-08T03:03:05;5.80;99.90
14370;DHT22;7268;50.792;0.252;2024-03-08T03:05:33;5.70;99.90
14370;DHT22;7268;50.792;0.252;2024-03-08T03:08:01;5.70;99.90
14370;DHT22;7268;50.792;0.252;2024-03-08T03:10:28;5.70;99.90
14370;DHT22;7268;50.792;0.252;2024-03-08T03:12:55;5.80;99.90
14370;DHT22;7268;50.792;0.252;2024-03-08T03:15:22;5.70;99.90
14370;DHT22;7268;50.792;0.252;2024-03-08T03:17:53;5.70;99.90
14370;DHT22;7268;50.792;0.252;2024-03-08T03:20:20;5.70;99.90
14370;DHT22;7268;50.792;0.252;2024-03-08T03:22:53;5.70;99.90
14370;DHT22;7268;50.792;0.252;2024-03-08T03:25:21;5.70;99.90
14370;DHT22;7268;50.792;0.252;2024-03-08T03:28:03;5.70;99.90
14370;DHT22;7268;50.792;0.252;2024-03-08T03:30:31;5.70;99.90
14370;DHT22;7268;50.792;0.252;2024-03-08T03:33:00;5.80;99.90
14370;DHT22;7268;50.792;0.252;2024-03-08T03:35:28;5.70;99.90
14370;DHT22;7268;50.792;0.252;2024-03-08T03:37:56;5.70;99.90
14370;DHT22;7268;50.792;0.252;2024-03-08T03:40:40;5.70;99.90
14370;DHT22;7268;50.792;0.252;2024-03-08T03:43:09;5.60;99.90
14370;DHT22;7268;50.792;0.252;2024-03-08T03:45:39;5.50;99.90
14370;DHT22;7268;50.792;0.252;2024-03-08T03:48:08;5.30;99.90
14370;DHT22;7268;50.792;0.252;2024-03-08T03:50:37;5.20;99.90
14370;DHT22;7268;50.792;0.252;2024-03-08T03:53:05;5.10;99.90
14370;DHT22;7268;50.792;0.252;2024-03-08T03:55:37;4.80;99.90
14370;DHT22;7268;50.792;0.252;2024-03-08T03:58:07;4.80;99.90
14370;DHT22;7268;50.792;0.252;2024-03-08T04:00:34;4.70;99.90
14370;DHT22;7268;50.792;0.252;2024-03-08T04:03:01;4.50;99.90
14370;DHT22;7268;50.792;0.252;2024-03-08T04:05:28;4.60;99.90
14370;DHT22;7268;50.792;0.252;2024-03-08T04:07:55;4.40;99.90
14370;DHT22;7268;50.792;0.252;2024-03-08T04:10:22;4.30;99.90
14370;DHT22;7268;50.792;0.252;2024-03-08T04:12:49;4.30;99.90
14370;DHT22;7268;50.792;0.252;2024-03-08T04:15:16;4.20;99.90
14370;DHT22;7268;50.792;0.252;2024-03-08T04:17:43;4.20;99.90
14370;DHT22;7268;50.792;0.252;2024-03-08T04:20:13;4.10;99.90
14370;DHT22;7268;50.792;0.252;2024-03-08T04:22:42;4.10;99.90
14370;DHT22;7268;50.792;0.252;2024-03-08T04:25:11;4.00;99.90
14370;DHT22;7268;50.792;0.252;2024-03-08T04:27:38;3.90;99.90
14370;DHT22;7268;50.792;0.252;2024-03-08T04:30:05;3.90;99.90
14370;DHT22;7268;50.792;0.252;2024-03-08T04:32:35;3.80;99.90
14370;DHT22;7268;50.792;0.252;2024-03-08T04:35:02;3.70;99.90
14370;DHT22;7268;50.792;0.252;2024-03-08T04:37:30;3.70;99.90
14370;DHT22;7268;50.792;0.252;2024-03-08T04:39:58;3.70;99.90
14370;DHT22;7268;50.792;0.252;2024-03-08T04:42:28;3.70;99.90
14370;DHT22;7268;50.792;0.252;2024-03-08T04:44:56;3.80;99.90
14370;DHT22;7268;50.792;0.252;2024-03-08T04:47:24;3.80;99.90
14370;DHT22;7268;50.792;0.252;2024-03-08T04:49:51;3.80;99.90
14370;DHT22;7268;50.792;0.252;2024-03-08T04:52:18;3.80;99.90
14370;DHT22;7268;50.792;0.252;2024-03-08T04:54:45;4.00;99.90
14370;DHT22;7268;50.792;0.252;2024-03-08T04:57:12;4.00;99.90
14370;DHT22;7268;50.792;0.252;2024-03-08T04:59:39;4.10;99.90
14370;DHT22;7268;50.792;0.252;2024-03-08T05:02:06;4.10;99.90
14370;DHT22;7268;50.792;0.252;2024-03-08T05:04:34;4.10;99.90
14370;DHT22;7268;50.792;0.252;2024-03-08T05:07:02;4.20;99.90
14370;DHT22;7268;50.792;0.252;2024-03-08T05:09:30;4.20;99.90
14370;DHT22;7268;50.792;0.252;2024-03-08T05:11:58;4.40;99.90
14370;DHT22;7268;50.792;0.252;2024-03-08T05:14:26;4.40;99.90
14370;DHT22;7268;50.792;0.252;2024-03-08T05:16:53;4.40;99.90
14370;DHT22;7268;50.792;0.252;2024-03-08T05:19:20;4.40;99.90
14370;DHT22;7268;50.792;0.252;2024-03-08T05:21:49;4.40;99.90
14370;DHT22;7268;50.792;0.252;2024-03-08T05:24:17;4.40;99.90
14370;DHT22;7268;50.792;0.252;2024-03-08T05:26:45;4.30;99.90
14370;DHT22;7268;50.792;0.252;2024-03-08T05:29:13;4.30;99.90
14370;DHT22;7268;50.792;0.252;2024-03-08T05:31:50;4.20;99.90
14370;DHT22;7268;50.792;0.252;2024-03-08T05:34:19;4.30;99.90
14370;DHT22;7268;50.792;0.252;2024-03-08T05:36:48;4.20;99.90
14370;DHT22;7268;50.792;0.252;2024-03-08T05:39:18;4.40;99.90
14370;DHT22;7268;50.792;0.252;2024-03-08T05:41:47;4.50;99.90
14370;DHT22;7268;50.792;0.252;2024-03-08T05:44:15;4.50;99.90
14370;DHT22;7268;50.792;0.252;2024-03-08T05:46:44;4.70;99.90
14370;DHT22;7268;50.792;0.252;2024-03-08T05:49:14;4.80;99.90
14370;DHT22;7268;50.792;0.252;2024-03-08T05:51:41;4.90;99.90
14370;DHT22;7268;50.792;0.252;2024-03-08T05:54:10;4.90;99.90
14370;DHT22;7268;50.792;0.252;2024-03-08T05:56:39;5.00;99.90
14370;DHT22;7268;50.792;0.252;2024-03-08T05:59:09;5.10;99.90
14370;DHT22;7268;50.792;0.252;2024-03-08T06:01:36;5.20;99.90
14370;DHT22;7268;50.792;0.252;2024-03-08T06:04:03;5.20;99.90
14370;DHT22;7268;50.792;0.252;2024-03-08T06:06:31;5.20;99.90
14370;DHT22;7268;50.792;0.252;2024-03-08T06:08:58;5.20;99.90
14370;DHT22;7268;50.792;0.252;2024-03-08T06:11:26;5.20;99.90
14370;DHT22;7268;50.792;0.252;2024-03-08T06:13:58;5.30;99.90
14370;DHT22;7268;50.792;0.252;2024-03-08T06:16:27;5.30;99.90
14370;DHT22;7268;50.792;0.252;2024-03-08T06:18:57;5.40;99.90
14370;DHT22;7268;50.792;0.252;2024-03-08T06:21:24;5.40;99.90
14370;DHT22;7268;50.792;0.252;2024-03-08T06:23:55;5.40;99.90
14370;DHT22;7268;50.792;0.252;2024-03-08T06:26:22;5.50;99.90
14370;DHT22;7268;50.792;0.252;2024-03-08T06:28:49;5.50;99.90
14370;DHT22;7268;50.792;0.252;2024-03-08T06:31:17;5.50;99.90
14370;DHT22;7268;50.792;0.252;2024-03-08T06:33:44;5.40;99.90
14370;DHT22;7268;50.792;0.252;2024-03-08T06:36:11;5.50;99.90
14370;DHT22;7268;50.792;0.252;2024-03-08T06:38:39;5.40;99.90
14370;DHT22;7268;50.792;0.252;2024-03-08T06:41:09;5.50;99.90
14370;DHT22;7268;50.792;0.252;2024-03-08T06:43:45;5.50;99.90
14370;DHT22;7268;50.792;0.252;2024-03-08T06:46:15;5.50;99.90
14370;DHT22;7268;50.792;0.252;2024-03-08T06:48:41;5.60;99.90
14370;DHT22;7268;50.792;0.252;2024-03-08T06:51:09;5.70;99.90
14370;DHT22;7268;50.792;0.252;2024-03-08T06:53:38;5.70;99.90
14370;DHT22;7268;50.792;0.252;2024-03-08T06:56:08;5.80;99.90
14370;DHT22;7268;50.792;0.252;2024-03-08T06:58:35;5.90;99.90
14370;DHT22;7268;50.792;0.252;2024-03-08T07:01:02;5.90;99.90
14370;DHT22;7268;50.792;0.252;2024-03-08T07:03:31;5.90;99.90
14370;DHT22;7268;50.792;0.252;2024-03-08T07:05:59;5.90;99.90
14370;DHT22;7268;50.792;0.252;2024-03-08T07:08:29;5.90;99.90
14370;DHT22;7268;50.792;0.252;2024-03-08T07:10:56;5.90;99.90
14370;DHT22;7268;50.792;0.252;2024-03-08T07:13:26;5.90;99.90
14370;DHT22;7268;50.792;0.252;2024-03-08T07:15:55;6.00;99.90
14370;DHT22;7268;50.792;0.252;2024-03-08T07:18:22;6.00;99.90
14370;DHT22;7268;50.792;0.252;2024-03-08T07:20:49;6.00;99.90
14370;DHT22;7268;50.792;0.252;2024-03-08T07:23:16;6.10;99.90
14370;DHT22;7268;50.792;0.252;2024-03-08T07:26:04;6.10;99.90
14370;DHT22;7268;50.792;0.252;2024-03-08T07:28:31;6.10;99.90
14370;DHT22;7268;50.792;0.252;2024-03-08T07:30:58;6.10;99.90
14370;DHT22;7268;50.792;0.252;2024-03-08T07:33:52;6.20;99.90
14370;DHT22;7268;50.792;0.252;2024-03-08T07:36:20;6.20;99.90
14370;DHT22;7268;50.792;0.252;2024-03-08T07:38:48;6.30;99.90
14370;DHT22;7268;50.792;0.252;2024-03-08T07:41:16;6.50;99.90
14370;DHT22;7268;50.792;0.252;2024-03-08T07:43:43;6.60;99.90
14370;DHT22;7268;50.792;0.252;2024-03-08T07:46:10;6.90;99.90
14370;DHT22;7268;50.792;0.252;2024-03-08T07:48:37;7.10;99.90
14370;DHT22;7268;50.792;0.252;2024-03-08T07:51:04;7.30;99.90
14370;DHT22;7268;50.792;0.252;2024-03-08T07:53:32;7.20;99.90
14370;DHT22;7268;50.792;0.252;2024-03-08T07:55:59;7.20;99.90
14370;DHT22;7268;50.792;0.252;2024-03-08T07:58:27;7.30;99.90
14370;DHT22;7268;50.792;0.252;2024-03-08T08:00:55;7.80;99.90
14370;DHT22;7268;50.792;0.252;2024-03-08T08:03:27;8.00;99.90
14370;DHT22;7268;50.792;0.252;2024-03-08T08:05:54;8.10;99.90
14370;DHT22;7268;50.792;0.252;2024-03-08T08:08:21;8.20;99.90
14370;DHT22;7268;50.792;0.252;2024-03-08T08:10:48;8.30;99.90
14370;DHT22;7268;50.792;0.252;2024-03-08T08:13:16;8.50;99.90
14370;DHT22;7268;50.792;0.252;2024-03-08T08:15:44;8.50;99.90
14370;DHT22;7268;50.792;0.252;2024-03-08T08:18:12;9.10;99.90
14370;DHT22;7268;50.792;0.252;2024-03-08T08:20:40;9.20;99.90
14370;DHT22;7268;50.792;0.252;2024-03-08T08:23:07;9.70;99.90
14370;DHT22;7268;50.792;0.252;2024-03-08T08:25:35;9.90;99.90
14370;DHT22;7268;50.792;0.252;2024-03-08T08:28:02;9.20;99.90
14370;DHT22;7268;50.792;0.252;2024-03-08T08:30:31;9.00;99.90
14370;DHT22;7268;50.792;0.252;2024-03-08T08:33:00;8.40;99.90
14370;DHT22;7268;50.792;0.252;2024-03-08T08:35:27;8.20;99.90
14370;DHT22;7268;50.792;0.252;2024-03-08T08:37:55;7.80;99.90
14370;DHT22;7268;50.792;0.252;2024-03-08T08:40:22;7.80;99.90
14370;DHT22;7268;50.792;0.252;2024-03-08T08:42:51;7.80;99.90
14370;DHT22;7268;50.792;0.252;2024-03-08T08:45:19;7.70;99.90
14370;DHT22;7268;50.792;0.252;2024-03-08T08:47:52;8.00;99.90
14370;DHT22;7268;50.792;0.252;2024-03-08T08:50:19;7.90;99.90
14370;DHT22;7268;50.792;0.252;2024-03-08T08:52:50;7.90;99.90
14370;DHT22;7268;50.792;0.252;2024-03-08T08:55:17;8.10;99.90
14370;DHT22;7268;50.792;0.252;2024-03-08T08:57:47;8.60;99.90
14370;DHT22;7268;50.792;0.252;2024-03-08T09:00:15;8.70;99.90
14370;DHT22;7268;50.792;0.252;2024-03-08T09:02:42;8.50;99.90
14370;DHT22;7268;50.792;0.252;2024-03-08T09:05:10;8.30;99.90
14370;DHT22;7268;50.792;0.252;2024-03-08T09:07:44;8.60;99.90
14370;DHT22;7268;50.792;0.252;2024-03-08T09:10:11;8.70;99.90
14370;DHT22;7268;50.792;0.252;2024-03-08T09:12:44;8.80;99.90
14370;DHT22;7268;50.792;0.252;2024-03-08T09:15:11;9.00;99.90
14370;DHT22;7268;50.792;0.252;2024-03-08T09:17:40;9.00;99.90
14370;DHT22;7268;50.792;0.252;2024-03-08T09:20:07;9.80;99.90
14370;DHT22;7268;50.792;0.252;2024-03-08T09:22:35;10.80;99.90
14370;DHT22;7268;50.792;0.252;2024-03-08T09:25:03;11.00;99.90
14370;DHT22;7268;50.792;0.252;2024-03-08T09:27:32;10.80;99.90
14370;DHT22;7268;50.792;0.252;2024-03-08T09:30:04;10.70;99.90
14370;DHT22;7268;50.792;0.252;2024-03-08T09:32:33;11.40;99.90
14370;DHT22;7268;50.792;0.252;2024-03-08T09:35:00;11.00;99.90
14370;DHT22;7268;50.792;0.252;2024-03-08T09:37:29;10.50;99.90
14370;DHT22;7268;50.792;0.252;2024-03-08T09:39:57;10.30;99.90
14370;DHT22;7268;50.792;0.252;2024-03-08T09:42:26;10.10;99.90
14370;DHT22;7268;50.792;0.252;2024-03-08T09:44:53;9.80;99.90
14370;DHT22;7268;50.792;0.252;2024-03-08T09:47:22;10.30;99.90
14370;DHT22;7268;50.792;0.252;2024-03-08T09:49:51;11.20;99.90
14370;DHT22;7268;50.792;0.252;2024-03-08T09:52:19;11.60;99.90
14370;DHT22;7268;50.792;0.252;2024-03-08T09:54:46;11.40;99.90
14370;DHT22;7268;50.792;0.252;2024-03-08T09:57:13;11.90;99.90
14370;DHT22;7268;50.792;0.252;2024-03-08T09:59:44;11.80;99.90
14370;DHT22;7268;50.792;0.252;2024-03-08T10:02:15;11.70;99.90
14370;DHT22;7268;50.792;0.252;2024-03-08T10:04:43;11.50;99.90
14370;DHT22;7268;50.792;0.252;2024-03-08T10:07:13;11.90;99.90
14370;DHT22;7268;50.792;0.252;2024-03-08T10:09:40;12.70;99.90
14370;DHT22;7268;50.792;0.252;2024-03-08T10:12:15;12.90;99.30
14370;DHT22;7268;50.792;0.252;2024-03-08T10:14:43;13.30;99.10
14370;DHT22;7268;50.792;0.252;2024-03-08T10:17:10;13.50;98.10
14370;DHT22;7268;50.792;0.252;2024-03-08T10:19:36;13.40;97.40
14370;DHT22;7268;50.792;0.252;2024-03-08T10:22:04;13.20;99.70
14370;DHT22;7268;50.792;0.252;2024-03-08T10:24:31;13.20;99.40
14370;DHT22;7268;50.792;0.252;2024-03-08T10:27:04;12.10;99.90
14370;DHT22;7268;50.792;0.252;2024-03-08T10:29:32;11.80;99.90
14370;DHT22;7268;50.792;0.252;2024-03-08T10:31:59;12.80;99.90
14370;DHT22;7268;50.792;0.252;2024-03-08T10:34:27;13.20;98.80
14370;DHT22;7268;50.792;0.252;2024-03-08T10:36:54;13.50;97.40
14370;DHT22;7268;50.792;0.252;2024-03-08T10:39:25;13.20;98.90
14370;DHT22;7268;50.792;0.252;2024-03-08T10:41:57;13.30;98.30
14370;DHT22;7268;50.792;0.252;2024-03-08T10:44:31;13.90;96.90
14370;DHT22;7268;50.792;0.252;2024-03-08T10:47:41;14.10;95.60
14370;DHT22;7268;50.792;0.252;2024-03-08T10:50:18;14.90;93.80
14370;DHT22;7268;50.792;0.252;2024-03-08T10:52:50;14.20;96.30
14370;DHT22;7268;50.792;0.252;2024-03-08T10:55:19;14.10;97.30
14370;DHT22;7268;50.792;0.252;2024-03-08T10:57:47;14.50;94.60
14370;DHT22;7268;50.792;0.252;2024-03-08T11:00:14;14.10;95.70
14370;DHT22;7268;50.792;0.252;2024-03-08T11:02:46;14.60;94.60
14370;DHT22;7268;50.792;0.252;2024-03-08T11:08:02;13.90;95.90
14370;DHT22;7268;50.792;0.252;2024-03-08T11:10:31;14.60;96.20
14370;DHT22;7268;50.792;0.252;2024-03-08T11:12:57;15.70;92.40
14370;DHT22;7268;50.792;0.252;2024-03-08T11:15:25;14.90;93.30
14370;DHT22;7268;50.792;0.252;2024-03-08T11:17:52;14.90;93.70
14370;DHT22;7268;50.792;0.252;2024-03-08T11:20:24;14.10;95.90
14370;DHT22;7268;50.792;0.252;2024-03-08T11:22:54;15.10;95.00
14370;DHT22;7268;50.792;0.252;2024-03-08T11:30:37;16.20;89.80
14370;DHT22;7268;50.792;0.252;2024-03-08T11:33:05;15.30;92.70
14370;DHT22;7268;50.792;0.252;2024-03-08T11:35:33;14.60;91.10
14370;DHT22;7268;50.792;0.252;2024-03-08T11:38:00;15.10;91.90
14370;DHT22;7268;50.792;0.252;2024-03-08T11:40:28;14.80;91.40
14370;DHT22;7268;50.792;0.252;2024-03-08T11:42:55;14.90;92.00
14370;DHT22;7268;50.792;0.252;2024-03-08T11:45:22;15.00;92.30
14370;DHT22;7268;50.792;0.252;2024-03-08T11:47:49;15.10;89.90
14370;DHT22;7268;50.792;0.252;2024-03-08T11:50:17;15.00;88.80
14370;DHT22;7268;50.792;0.252;2024-03-08T11:52:47;15.30;87.10
14370;DHT22;7268;50.792;0.252;2024-03-08T11:55:16;15.20;85.10
14370;DHT22;7268;50.792;0.252;2024-03-08T11:57:47;14.60;90.00
14370;DHT22;7268;50.792;0.252;2024-03-08T12:00:16;14.30;90.50
14370;DHT22;7268;50.792;0.252;2024-03-08T12:03:04;14.10;89.70
14370;DHT22;7268;50.792;0.252;2024-03-08T12:05:31;14.20;89.00
14370;DHT22;7268;50.792;0.252;2024-03-08T12:08:02;14.30;90.00
14370;DHT22;7268;50.792;0.252;2024-03-08T12:10:29;14.50;87.90
14370;DHT22;7268;50.792;0.252;2024-03-08T12:12:58;13.70;90.90
14370;DHT22;7268;50.792;0.252;2024-03-08T12:15:31;13.60;91.60
14370;DHT22;7268;50.792;0.252;2024-03-08T12:18:00;14.60;89.30
14370;DHT22;7268;50.792;0.252;2024-03-08T12:20:28;14.30;87.30
14370;DHT22;7268;50.792;0.252;2024-03-08T12:22:59;14.10;89.90
14370;DHT22;7268;50.792;0.252;2024-03-08T12:25:35;13.60;91.60
14370;DHT22;7268;50.792;0.252;2024-03-08T12:28:10;13.20;92.20
14370;DHT22;7268;50.792;0.252;2024-03-08T12:30:48;13.10;93.50
14370;DHT22;7268;50.792;0.252;2024-03-08T12:33:16;12.80;94.20
14370;DHT22;7268;50.792;0.252;2024-03-08T12:35:51;12.70;94.70
14370;DHT22;7268;50.792;0.252;2024-03-08T12:38:22;12.70;95.40
14370;DHT22;7268;50.792;0.252;2024-03-08T12:40:58;12.50;95.10
14370;DHT22;7268;50.792;0.252;2024-03-08T12:43:26;12.50;96.60
14370;DHT22;7268;50.792;0.252;2024-03-08T12:45:57;12.60;96.50
14370;DHT22;7268;50.792;0.252;2024-03-08T12:48:24;12.50;97.00
14370;DHT22;7268;50.792;0.252;2024-03-08T12:50:51;12.30;98.50
14370;DHT22;7268;50.792;0.252;2024-03-08T12:53:20;12.20;97.80
14370;DHT22;7268;50.792;0.252;2024-03-08T12:55:48;12.00;99.90
14370;DHT22;7268;50.792;0.252;2024-03-08T12:58:15;11.80;99.90
14370;DHT22;7268;50.792;0.252;2024-03-08T13:00:43;11.60;99.90
14370;DHT22;7268;50.792;0.252;2024-03-08T13:03:10;11.40;99.90
14370;DHT22;7268;50.792;0.252;2024-03-08T13:05:38;11.30;99.90
14370;DHT22;7268;50.792;0.252;2024-03-08T13:08:09;11.00;99.90
14370;DHT22;7268;50.792;0.252;2024-03-08T13:10:40;10.80;99.90
14370;DHT22;7268;50.792;0.252;2024-03-08T13:13:07;10.20;99.90
14370;DHT22;7268;50.792;0.252;2024-03-08T13:15:36;10.10;99.90
14370;DHT22;7268;50.792;0.252;2024-03-08T13:18:03;10.00;99.90
14370;DHT22;7268;50.792;0.252;2024-03-08T13:20:32;9.90;99.90
14370;DHT22;7268;50.792;0.252;2024-03-08T13:23:09;9.90;99.90
14370;DHT22;7268;50.792;0.252;2024-03-08T13:25:36;10.10;99.90
14370;DHT22;7268;50.792;0.252;2024-03-08T13:28:05;10.10;99.90
14370;DHT22;7268;50.792;0.252;2024-03-08T13:30:33;10.10;99.90
14370;DHT22;7268;50.792;0.252;2024-03-08T13:33:00;10.20;99.90
14370;DHT22;7268;50.792;0.252;2024-03-08T13:35:27;10.00;99.90
14370;DHT22;7268;50.792;0.252;2024-03-08T13:37:56;9.90;99.90
14370;DHT22;7268;50.792;0.252;2024-03-08T13:40:23;10.00;99.90
14370;DHT22;7268;50.792;0.252;2024-03-08T13:42:50;10.10;99.90
14370;DHT22;7268;50.792;0.252;2024-03-08T13:45:17;10.00;99.90
14370;DHT22;7268;50.792;0.252;2024-03-08T13:47:51;10.00;99.90
14370;DHT22;7268;50.792;0.252;2024-03-08T13:50:18;9.80;99.90
14370;DHT22;7268;50.792;0.252;2024-03-08T13:52:49;9.80;99.90
14370;DHT22;7268;50.792;0.252;2024-03-08T13:55:23;9.80;99.90
14370;DHT22;7268;50.792;0.252;2024-03-08T13:57:50;9.80;99.90
14370;DHT22;7268;50.792;0.252;2024-03-08T14:00:20;9.60;99.90
14370;DHT22;7268;50.792;0.252;2024-03-08T14:02:50;9.60;99.90
14370;DHT22;7268;50.792;0.252;2024-03-08T14:05:17;9.60;99.90
14370;DHT22;7268;50.792;0.252;2024-03-08T14:07:46;9.60;99.90
14370;DHT22;7268;50.792;0.252;2024-03-08T14:10:16;9.70;99.90
14370;DHT22;7268;50.792;0.252;2024-03-08T14:12:47;9.60;99.90
14370;DHT22;7268;50.792;0.252;2024-03-08T14:15:16;9.60;99.90
14370;DHT22;7268;50.792;0.252;2024-03-08T14:17:43;9.70;99.90
14370;DHT22;7268;50.792;0.252;2024-03-08T14:20:14;9.70;99.90
14370;DHT22;7268;50.792;0.252;2024-03-08T14:22:41;9.80;99.90
14370;DHT22;7268;50.792;0.252;2024-03-08T14:25:08;9.60;99.90
14370;DHT22;7268;50.792;0.252;2024-03-08T14:27:44;9.70;99.90
14370;DHT22;7268;50.792;0.252;2024-03-08T14:30:12;9.90;99.90
14370;DHT22;7268;50.792;0.252;2024-03-08T14:32:40;10.00;99.90
14370;DHT22;7268;50.792;0.252;2024-03-08T14:35:08;10.00;99.90
14370;DHT22;7268;50.792;0.252;2024-03-08T14:37:38;9.90;99.90
14370;DHT22;7268;50.792;0.252;2024-03-08T14:40:05;10.00;99.90
14370;DHT22;7268;50.792;0.252;2024-03-08T14:42:32;10.20;99.90
14370;DHT22;7268;50.792;0.252;2024-03-08T14:44:59;10.10;99.90
14370;DHT22;7268;50.792;0.252;2024-03-08T14:47:27;10.20;99.90
14370;DHT22;7268;50.792;0.252;2024-03-08T14:49:55;10.10;99.90
14370;DHT22;7268;50.792;0.252;2024-03-08T14:52:22;9.90;99.90
14370;DHT22;7268;50.792;0.252;2024-03-08T14:54:56;9.80;99.90
14370;DHT22;7268;50.792;0.252;2024-03-08T14:57:23;10.10;99.90
14370;DHT22;7268;50.792;0.252;2024-03-08T14:59:50;10.20;99.90
14370;DHT22;7268;50.792;0.252;2024-03-08T15:02:17;10.00;99.90
14370;DHT22;7268;50.792;0.252;2024-03-08T15:04:47;9.80;99.90
14370;DHT22;7268;50.792;0.252;2024-03-08T15:07:24;9.80;99.90
14370;DHT22;7268;50.792;0.252;2024-03-08T15:09:56;9.80;99.90
14370;DHT22;7268;50.792;0.252;2024-03-08T15:12:23;9.70;99.90
14370;DHT22;7268;50.792;0.252;2024-03-08T15:14:53;9.70;99.90
14370;DHT22;7268;50.792;0.252;2024-03-08T15:17:22;9.60;99.90
14370;DHT22;7268;50.792;0.252;2024-03-08T15:19:50;9.50;99.90
14370;DHT22;7268;50.792;0.252;2024-03-08T15:22:18;9.50;99.90
14370;DHT22;7268;50.792;0.252;2024-03-08T15:24:45;9.60;99.90
14370;DHT22;7268;50.792;0.252;2024-03-08T15:27:12;9.60;99.90
14370;DHT22;7268;50.792;0.252;2024-03-08T15:29:39;9.50;99.90
14370;DHT22;7268;50.792;0.252;2024-03-08T15:32:06;9.50;99.90
14370;DHT22;7268;50.792;0.252;2024-03-08T15:34:36;9.40;99.90
14370;DHT22;7268;50.792;0.252;2024-03-08T15:37:05;9.30;99.90
14370;DHT22;7268;50.792;0.252;2024-03-08T15:39:33;9.30;99.90
14370;DHT22;7268;50.792;0.252;2024-03-08T15:42:01;9.30;99.90
14370;DHT22;7268;50.792;0.252;2024-03-08T15:44:28;9.30;99.90
14370;DHT22;7268;50.792;0.252;2024-03-08T15:46:55;9.40;99.90
14370;DHT22;7268;50.792;0.252;2024-03-08T15:49:23;9.30;99.90
14370;DHT22;7268;50.792;0.252;2024-03-08T15:51:53;9.20;99.90
14370;DHT22;7268;50.792;0.252;2024-03-08T15:54:20;9.20;99.90
14370;DHT22;7268;50.792;0.252;2024-03-08T15:56:48;9.10;99.90
14370;DHT22;7268;50.792;0.252;2024-03-08T15:59:15;9.20;99.90
14370;DHT22;7268;50.792;0.252;2024-03-08T16:01:43;9.20;99.90
14370;DHT22;7268;50.792;0.252;2024-03-08T16:04:18;9.20;99.90
14370;DHT22;7268;50.792;0.252;2024-03-08T16:06:47;9.00;99.90
14370;DHT22;7268;50.792;0.252;2024-03-08T16:09:14;9.00;99.90
14370;DHT22;7268;50.792;0.252;2024-03-08T16:11:42;8.90;99.90
14370;DHT22;7268;50.792;0.252;2024-03-08T16:14:10;8.80;99.90